Decoded Metar for LZIB (BRATISLAVA in SLOVAKIA) (IATA:BTS) | Meteo·Mobile Aviation Weather
aviador You're here:

LZIB Decoded Metar

BRATISLAVA in SLOVAKIA
Report Time2019-04-19 22:00:00
UTC Time2019-04-19 22:23:31
Flight Rules vfr VFR
Wind030° at 06 kt
W.Decomp.*RWY 04: 5.8 kt HW 1.3 kt LCW
RWY 31: 1.3 kt HW 5.8 kt RCW
Visibility9999 m
Phenomena:N/A
Clouds:N/A
Expected CloudBase > 4,400 ft AGL from Temp-Dew spread
CeilingNone
Temp11°C (ISA -3)
Dew Point00°C (47% RH)
AAT6.9°C
QNH1029 hPa
Density Alt-384 ft
Elevation440 ft
Report Wrong Elevation
Raw Report
LZIB 192200Z 03006KT CAVOK 11/M00 Q1029=

Extra information for LZIB:More info

Metar Taf Metar & Taf Last 4 Metars F.Rules Stats Wind Profile Meteogram Temp Stats Airport Information Weather charts Add Link Nearby VenuesMetar ALERT Operation Metar Decoded Social comments